createdAt,value
2023-03-19T00:01:11.789Z,7.10
2023-03-19T00:03:40.185Z,7.00
2023-03-19T00:06:10.044Z,5.65
2023-03-19T00:08:38.417Z,6.35
2023-03-19T00:11:08.133Z,5.65
2023-03-19T00:13:36.814Z,6.50
2023-03-19T00:16:05.976Z,5.47
2023-03-19T00:18:34.754Z,5.95
2023-03-19T00:21:03.143Z,7.00
2023-03-19T00:23:33.046Z,5.70
2023-03-19T00:26:01.817Z,6.30
2023-03-19T00:28:30.847Z,6.82
2023-03-19T00:30:59.654Z,6.38
2023-03-19T00:33:28.250Z,7.00
2023-03-19T00:35:57.861Z,6.97
2023-03-19T00:38:26.495Z,7.30
2023-03-19T00:40:56.257Z,7.82
2023-03-19T00:43:24.913Z,7.68
2023-03-19T00:45:53.370Z,7.20
2023-03-19T00:48:22.188Z,6.15
2023-03-19T00:50:50.764Z,5.47
2023-03-19T00:53:19.784Z,6.45
2023-03-19T00:55:48.266Z,5.43
2023-03-19T00:58:17.978Z,5.05
2023-03-19T01:00:46.352Z,5.82
2023-03-19T01:03:15.011Z,4.78
2023-03-19T01:05:43.376Z,4.88
2023-03-19T01:08:11.782Z,6.32
2023-03-19T01:10:41.237Z,6.63
2023-03-19T01:13:09.593Z,5.90
2023-03-19T01:15:40.250Z,6.43
2023-03-19T01:18:10.060Z,6.95
2023-03-19T01:20:40.710Z,6.28
2023-03-19T01:23:09.520Z,6.43
2023-03-19T01:25:40.453Z,6.25
2023-03-19T01:28:09.188Z,6.80
2023-03-19T01:30:40.927Z,6.50
2023-03-19T01:33:09.647Z,7.78
2023-03-19T01:35:38.122Z,7.93
2023-03-19T01:38:07.871Z,7.90
2023-03-19T01:40:36.929Z,8.02
2023-03-19T01:43:19.446Z,7.85
2023-03-19T01:45:52.380Z,7.78
2023-03-19T01:48:28.494Z,7.63
2023-03-19T01:50:58.559Z,6.88
2023-03-19T01:53:31.450Z,7.85
2023-03-19T01:56:05.461Z,7.60
2023-03-19T01:58:34.160Z,7.50
2023-03-19T02:01:04.402Z,8.00
2023-03-19T02:03:34.293Z,8.35
2023-03-19T02:06:03.142Z,8.45
2023-03-19T02:08:33.384Z,8.40
2023-03-19T02:11:02.253Z,7.80
2023-03-19T02:13:30.804Z,7.32
2023-03-19T02:15:59.430Z,8.40
2023-03-19T02:18:29.257Z,7.68
2023-03-19T02:21:04.609Z,7.72
2023-03-19T02:23:41.027Z,7.90
2023-03-19T02:26:13.148Z,8.20
2023-03-19T02:28:44.928Z,9.35
2023-03-19T02:31:14.538Z,8.40
2023-03-19T02:33:42.972Z,8.85
2023-03-19T02:36:16.002Z,9.32
2023-03-19T02:38:47.830Z,8.43
2023-03-19T02:41:18.067Z,8.80
2023-03-19T02:43:46.570Z,8.23
2023-03-19T02:46:17.768Z,9.02
2023-03-19T02:48:46.407Z,9.15
2023-03-19T02:51:14.816Z,8.68
2023-03-19T02:53:43.257Z,9.13
2023-03-19T02:56:11.669Z,8.70
2023-03-19T02:58:41.869Z,9.80
2023-03-19T03:01:10.302Z,9.60
2023-03-19T03:03:39.137Z,9.50
2023-03-19T03:06:08.204Z,9.77
2023-03-19T03:08:36.735Z,9.27
2023-03-19T03:11:05.285Z,9.88
2023-03-19T03:13:33.821Z,10.10
2023-03-19T03:16:03.813Z,10.45
2023-03-19T03:18:32.646Z,10.05
2023-03-19T03:21:01.387Z,10.43
2023-03-19T03:23:29.978Z,9.90
2023-03-19T03:25:59.066Z,9.45
2023-03-19T03:28:28.084Z,9.43
2023-03-19T03:31:00.114Z,9.15
2023-03-19T03:33:30.684Z,9.85
2023-03-19T03:35:59.078Z,10.40
2023-03-19T03:38:27.820Z,10.30
2023-03-19T03:40:56.166Z,9.95
2023-03-19T03:43:24.726Z,8.82
2023-03-19T03:45:53.399Z,9.80
2023-03-19T03:48:21.945Z,10.07
2023-03-19T03:50:52.244Z,10.48
2023-03-19T03:53:20.795Z,9.20
2023-03-19T03:55:52.301Z,8.98
2023-03-19T03:58:20.723Z,8.27
2023-03-19T04:00:49.330Z,10.43
2023-03-19T04:03:18.261Z,9.68
2023-03-19T04:05:46.660Z,9.07
2023-03-19T04:08:16.905Z,8.52
2023-03-19T04:10:45.794Z,8.90
2023-03-19T04:13:14.410Z,9.18
2023-03-19T04:15:44.393Z,7.70
2023-03-19T04:18:12.779Z,8.70
2023-03-19T04:20:41.360Z,8.70
2023-03-19T04:23:09.984Z,9.30
2023-03-19T04:25:41.518Z,8.32
2023-03-19T04:28:12.981Z,7.90
2023-03-19T04:30:43.326Z,8.43
2023-03-19T04:33:13.084Z,7.47
2023-03-19T04:35:41.491Z,8.13
2023-03-19T04:38:10.049Z,8.25
2023-03-19T04:40:38.596Z,8.07
2023-03-19T04:43:08.401Z,7.63
2023-03-19T04:45:36.738Z,7.55
2023-03-19T04:48:05.748Z,6.70
2023-03-19T04:50:34.896Z,7.00
2023-03-19T04:53:03.420Z,7.40
2023-03-19T04:55:32.428Z,6.97
2023-03-19T04:58:01.236Z,6.97
2023-03-19T05:00:31.691Z,7.57
2023-03-19T05:03:00.228Z,8.05
2023-03-19T05:05:28.580Z,9.52
2023-03-19T05:07:57.312Z,7.05
2023-03-19T05:10:25.847Z,7.40
2023-03-19T05:12:54.320Z,5.53
2023-03-19T05:15:22.810Z,7.35
2023-03-19T05:17:52.766Z,7.50
2023-03-19T05:20:21.365Z,6.82
2023-03-19T05:22:49.722Z,7.60
2023-03-19T05:25:19.126Z,6.47
2023-03-19T05:27:47.541Z,6.78
2023-03-19T05:30:18.005Z,6.10
2023-03-19T05:32:46.981Z,5.53
2023-03-19T05:35:17.417Z,5.65
2023-03-19T05:37:46.164Z,4.97
2023-03-19T05:40:14.636Z,5.55
2023-03-19T05:42:43.242Z,5.47
2023-03-19T05:45:12.336Z,4.65
2023-03-19T05:47:42.911Z,5.85
2023-03-19T05:50:12.667Z,5.68
2023-03-19T05:52:42.376Z,6.35
2023-03-19T05:55:11.128Z,5.15
2023-03-19T05:57:39.462Z,4.75
2023-03-19T06:00:09.294Z,5.75
2023-03-19T06:02:38.684Z,6.07
2023-03-19T06:05:08.431Z,6.70
2023-03-19T06:07:37.280Z,6.93
2023-03-19T06:10:08.273Z,7.10
2023-03-19T06:12:36.975Z,6.40
2023-03-19T06:15:06.671Z,6.57
2023-03-19T06:17:35.103Z,7.30
2023-03-19T06:20:04.370Z,6.28
2023-03-19T06:22:32.719Z,8.52
2023-03-19T06:25:01.464Z,6.90
2023-03-19T06:27:31.370Z,6.75
2023-03-19T06:29:59.773Z,6.97
2023-03-19T06:32:28.291Z,7.57
2023-03-19T06:34:56.755Z,7.75
2023-03-19T06:37:25.400Z,7.78
2023-03-19T06:39:54.670Z,7.25
2023-03-19T06:42:23.312Z,8.52
2023-03-19T06:44:53.796Z,8.18
2023-03-19T06:47:22.545Z,8.77
2023-03-19T06:49:51.404Z,8.73
2023-03-19T06:52:19.866Z,9.15
2023-03-19T06:54:48.359Z,9.68
2023-03-19T06:57:16.724Z,9.50
2023-03-19T06:59:45.671Z,10.45
2023-03-19T07:02:15.371Z,9.88
2023-03-19T07:04:44.026Z,11.18
2023-03-19T07:07:12.742Z,10.65
2023-03-19T07:09:41.179Z,10.30
2023-03-19T07:12:10.032Z,11.02
2023-03-19T07:14:38.599Z,10.77
2023-03-19T07:17:10.237Z,10.43
2023-03-19T07:19:40.335Z,9.25
2023-03-19T07:22:08.811Z,10.00
2023-03-19T07:24:37.344Z,10.18
2023-03-19T07:27:05.956Z,10.55
2023-03-19T07:29:34.767Z,11.30
2023-03-19T07:32:03.492Z,9.38
2023-03-19T07:34:31.885Z,9.68
2023-03-19T07:37:01.903Z,10.82
2023-03-19T07:39:30.338Z,9.70
2023-03-19T07:41:58.998Z,9.25
2023-03-19T07:44:27.701Z,9.48
2023-03-19T07:46:56.087Z,9.38
2023-03-19T07:49:25.430Z,9.20
2023-03-19T07:51:53.897Z,8.60
2023-03-19T07:54:24.075Z,8.43
2023-03-19T07:56:52.560Z,9.55
2023-03-19T07:59:21.310Z,8.57
2023-03-19T08:01:49.860Z,8.48
2023-03-19T08:04:18.364Z,9.05
2023-03-19T08:06:47.006Z,8.85
2023-03-19T08:09:15.436Z,7.50
2023-03-19T08:11:45.616Z,7.60
2023-03-19T08:14:13.946Z,8.65
2023-03-19T08:16:45.645Z,8.57
2023-03-19T08:19:14.574Z,7.32
2023-03-19T08:21:43.464Z,7.22
2023-03-19T08:24:26.126Z,8.55
2023-03-19T08:26:56.470Z,7.45
2023-03-19T08:29:26.263Z,8.48
2023-03-19T08:31:56.068Z,7.38
2023-03-19T08:34:24.556Z,8.30
2023-03-19T08:36:52.911Z,8.13
2023-03-19T08:39:22.296Z,8.05
2023-03-19T08:41:51.374Z,8.15
2023-03-19T08:44:21.564Z,7.43
2023-03-19T08:46:50.022Z,7.95
2023-03-19T08:49:18.360Z,8.02
2023-03-19T08:51:46.927Z,8.30
2023-03-19T08:54:15.377Z,8.15
2023-03-19T08:56:43.843Z,8.38
2023-03-19T08:59:12.156Z,8.35
2023-03-19T09:01:41.894Z,8.93
2023-03-19T09:04:10.550Z,7.47
2023-03-19T09:06:39.170Z,6.88
2023-03-19T09:09:07.644Z,7.57
2023-03-19T09:11:36.260Z,7.43
2023-03-19T09:14:04.654Z,8.00
2023-03-19T09:16:33.144Z,7.13
2023-03-19T09:19:03.341Z,6.78
2023-03-19T09:21:32.903Z,8.10
2023-03-19T09:24:01.253Z,7.50
2023-03-19T09:26:29.868Z,6.95
2023-03-19T09:28:58.752Z,6.50
2023-03-19T09:31:29.659Z,6.65
2023-03-19T09:33:58.739Z,5.22
2023-03-19T09:36:28.526Z,6.55
2023-03-19T09:38:57.598Z,6.22
2023-03-19T09:41:33.384Z,6.30
2023-03-19T09:44:03.750Z,6.35
2023-03-19T09:46:39.658Z,6.00
2023-03-19T09:49:18.097Z,6.05
2023-03-19T09:51:53.078Z,6.80
2023-03-19T09:54:30.735Z,4.88
2023-03-19T09:56:59.405Z,4.85
2023-03-19T09:59:29.377Z,4.50
2023-03-19T10:02:19.484Z,4.07
2023-03-19T10:05:01.694Z,5.13
2023-03-19T10:07:49.629Z,4.45
2023-03-19T10:10:32.861Z,4.78
2023-03-19T10:13:14.293Z,5.40
2023-03-19T10:15:45.281Z,5.15
2023-03-19T10:18:18.270Z,4.65
2023-03-19T10:20:53.306Z,5.32
2023-03-19T10:23:38.522Z,4.07
2023-03-19T10:26:12.368Z,4.13
2023-03-19T10:28:43.608Z,4.30
2023-03-19T10:31:27.461Z,3.85
2023-03-19T10:34:13.663Z,4.03
2023-03-19T10:36:42.069Z,4.07
2023-03-19T10:39:14.432Z,3.80
2023-03-19T10:41:51.899Z,3.72
2023-03-19T10:44:29.813Z,3.83
2023-03-19T10:47:00.047Z,4.10
2023-03-19T10:49:28.943Z,3.22
2023-03-19T10:51:59.266Z,3.85
2023-03-19T10:54:30.477Z,3.88
2023-03-19T10:57:01.255Z,3.25
2023-03-19T10:59:34.380Z,4.25
2023-03-19T11:02:14.909Z,3.13
2023-03-19T11:04:43.955Z,3.33
2023-03-19T11:07:14.566Z,3.42
2023-03-19T11:09:47.096Z,3.45
2023-03-19T11:12:20.666Z,2.95
2023-03-19T11:14:51.125Z,2.90
2023-03-19T11:17:25.642Z,3.67
2023-03-19T11:19:56.154Z,4.35
2023-03-19T11:22:26.955Z,3.15
2023-03-19T11:25:00.985Z,2.60
2023-03-19T11:27:32.218Z,2.80
2023-03-19T11:30:01.118Z,2.28
2023-03-19T11:32:58.105Z,2.80
2023-03-19T11:35:30.269Z,2.15
2023-03-19T11:38:01.673Z,2.20
2023-03-19T11:40:43.782Z,2.10
2023-03-19T11:43:45.468Z,1.67
2023-03-19T11:46:28.705Z,2.00
2023-03-19T11:49:27.253Z,2.08
2023-03-19T11:52:04.149Z,2.10
2023-03-19T11:54:40.713Z,2.05
2023-03-19T11:57:17.278Z,1.55
2023-03-19T11:59:59.309Z,1.90
2023-03-19T12:02:57.058Z,2.33
2023-03-19T12:05:32.999Z,1.55
2023-03-19T12:08:20.553Z,1.50
2023-03-19T12:11:02.966Z,1.90
2023-03-19T12:13:43.372Z,1.77
2023-03-19T12:16:21.787Z,1.58
2023-03-19T12:19:21.730Z,1.48
2023-03-19T12:24:40.605Z,1.08
2023-03-19T12:27:23.013Z,1.70
2023-03-19T12:30:00.974Z,1.92
2023-03-19T12:32:54.342Z,2.08
2023-03-19T12:35:30.754Z,2.58
2023-03-19T12:38:04.162Z,2.85
2023-03-19T12:40:38.426Z,3.50
2023-03-19T12:43:25.441Z,4.75
2023-03-19T12:46:00.996Z,5.30
2023-03-19T12:48:33.112Z,5.20
2023-03-19T12:51:06.542Z,5.38
2023-03-19T12:53:45.565Z,7.25
2023-03-19T12:56:20.231Z,5.28
2023-03-19T12:58:58.126Z,3.78
2023-03-19T13:04:07.592Z,3.10
2023-03-19T13:06:38.649Z,4.35
2023-03-19T13:09:15.596Z,4.07
2023-03-19T13:11:49.561Z,4.65
2023-03-19T13:14:23.062Z,4.50
2023-03-19T13:17:00.734Z,4.68
2023-03-19T13:19:33.248Z,4.82
2023-03-19T13:22:07.477Z,5.82
2023-03-19T13:24:39.468Z,5.20
2023-03-19T13:27:13.034Z,5.40
2023-03-19T13:30:03.921Z,5.85
2023-03-19T13:32:41.446Z,6.72
2023-03-19T13:35:25.686Z,6.07
2023-03-19T13:37:59.674Z,7.40
2023-03-19T13:40:46.183Z,6.50
2023-03-19T13:43:41.655Z,5.93
2023-03-19T13:46:46.962Z,7.07
2023-03-19T13:49:32.033Z,7.18
2023-03-19T13:52:43.638Z,7.13
2023-03-19T13:55:32.724Z,7.15
2023-03-19T13:58:37.746Z,6.68
2023-03-19T14:01:07.323Z,7.18
2023-03-19T14:03:37.956Z,6.70
2023-03-19T14:06:39.755Z,6.22
2023-03-19T14:09:49.495Z,7.43
2023-03-19T14:12:32.121Z,6.22
2023-03-19T14:15:04.771Z,6.72
2023-03-19T14:17:35.513Z,6.97
2023-03-19T14:20:32.923Z,6.95
2023-03-19T14:23:23.869Z,6.90
2023-03-19T14:26:02.641Z,6.13
2023-03-19T14:28:38.425Z,5.10
2023-03-19T14:31:08.134Z,5.72
2023-03-19T14:33:45.345Z,6.63
2023-03-19T14:36:16.709Z,5.22
2023-03-19T14:38:52.225Z,5.05
2023-03-19T14:41:22.942Z,4.68
2023-03-19T14:44:10.074Z,4.20
2023-03-19T14:46:54.598Z,4.00
2023-03-19T14:50:07.852Z,3.85
2023-03-19T14:52:39.855Z,4.25
2023-03-19T14:55:14.330Z,4.82
2023-03-19T14:57:43.423Z,4.70
2023-03-19T15:00:18.292Z,4.90
2023-03-19T15:02:48.897Z,4.70
2023-03-19T15:05:25.109Z,4.68
2023-03-19T15:07:57.834Z,5.60
2023-03-19T15:10:29.952Z,5.38
2023-03-19T15:13:23.573Z,6.47
2023-03-19T15:16:11.276Z,5.75
2023-03-19T15:18:39.920Z,6.35
2023-03-19T15:21:10.161Z,5.70
2023-03-19T15:23:40.998Z,5.35
2023-03-19T15:26:11.857Z,5.93
2023-03-19T15:28:49.464Z,5.70
2023-03-19T15:31:32.029Z,5.30
2023-03-19T15:34:19.370Z,5.07
2023-03-19T15:36:52.788Z,4.72
2023-03-19T15:39:25.895Z,5.05
2023-03-19T15:41:57.357Z,5.30
2023-03-19T15:44:34.916Z,5.38
2023-03-19T15:47:07.828Z,5.67
2023-03-19T15:49:40.691Z,5.55
2023-03-19T15:52:14.022Z,5.20
2023-03-19T15:54:43.788Z,7.90
2023-03-19T15:57:15.988Z,8.85
2023-03-19T15:59:46.433Z,6.40
2023-03-19T16:02:23.158Z,5.85
2023-03-19T16:05:18.313Z,5.57
2023-03-19T16:07:44.381Z,5.57
2023-03-19T16:10:35.176Z,5.85
2023-03-19T16:13:23.261Z,5.72
2023-03-19T16:15:57.980Z,4.80
2023-03-19T16:18:28.567Z,6.63
2023-03-19T16:21:04.093Z,5.90
2023-03-19T16:23:35.622Z,4.85
2023-03-19T16:26:15.070Z,4.07
2023-03-19T16:28:49.051Z,4.60
2023-03-19T16:31:23.220Z,4.88
2023-03-19T16:33:53.375Z,4.30
2023-03-19T16:36:22.650Z,4.10
2023-03-19T16:38:57.557Z,4.47
2023-03-19T16:41:33.710Z,4.45
2023-03-19T16:44:14.230Z,4.38
2023-03-19T16:46:42.874Z,4.55
2023-03-19T16:49:11.331Z,4.00
2023-03-19T16:51:40.302Z,3.50
2023-03-19T16:54:10.739Z,2.70
2023-03-19T16:56:39.435Z,2.95
2023-03-19T16:59:18.565Z,4.75
2023-03-19T17:01:47.047Z,3.83
2023-03-19T17:04:17.670Z,4.13
2023-03-19T17:06:46.444Z,4.55
2023-03-19T17:09:14.804Z,4.07
2023-03-19T17:11:44.382Z,4.45
2023-03-19T17:14:20.946Z,4.45
2023-03-19T17:16:50.780Z,5.47
2023-03-19T17:19:22.160Z,5.88
2023-03-19T17:21:53.591Z,5.30
2023-03-19T17:24:24.896Z,4.60
2023-03-19T17:26:54.852Z,5.20
2023-03-19T17:29:26.099Z,4.85
2023-03-19T17:31:57.188Z,5.25
2023-03-19T17:34:27.792Z,4.88
2023-03-19T17:36:59.584Z,5.43
2023-03-19T17:39:31.402Z,4.68
2023-03-19T17:42:00.354Z,5.88
2023-03-19T17:44:30.064Z,6.32
2023-03-19T17:46:58.599Z,5.35
2023-03-19T17:49:29.171Z,5.45
2023-03-19T17:51:57.756Z,5.15
2023-03-19T17:54:27.165Z,6.00
2023-03-19T17:56:56.157Z,11.30
2023-03-19T17:59:24.588Z,5.32
2023-03-19T18:01:54.330Z,6.38
2023-03-19T18:04:23.534Z,5.90
2023-03-19T18:06:55.121Z,5.90
2023-03-19T18:09:25.671Z,5.75
2023-03-19T18:11:54.213Z,5.32
2023-03-19T18:14:22.638Z,5.65
2023-03-19T18:16:51.470Z,5.55
2023-03-19T18:19:25.974Z,5.57
2023-03-19T18:21:54.409Z,6.03
2023-03-19T18:24:22.831Z,7.35
2023-03-19T18:26:51.179Z,11.48
2023-03-19T18:29:19.569Z,6.97
2023-03-19T18:31:51.190Z,6.78
2023-03-19T18:34:21.118Z,7.13
2023-03-19T18:36:49.593Z,5.70
2023-03-19T18:39:18.133Z,5.97
2023-03-19T18:41:46.526Z,6.82
2023-03-19T18:44:14.967Z,6.53
2023-03-19T18:46:43.506Z,5.53
2023-03-19T18:49:22.444Z,6.82
2023-03-19T18:52:02.293Z,6.78
2023-03-19T18:54:32.804Z,6.13
2023-03-19T18:57:02.310Z,7.22
2023-03-19T18:59:32.653Z,6.43
2023-03-19T19:02:02.906Z,8.63
2023-03-19T19:04:32.752Z,10.18
2023-03-19T19:07:01.682Z,8.63
2023-03-19T19:09:30.099Z,7.85
2023-03-19T19:12:01.023Z,7.63
2023-03-19T19:14:29.627Z,6.05
2023-03-19T19:16:58.269Z,6.82
2023-03-19T19:19:28.523Z,7.40
2023-03-19T19:21:58.392Z,7.88
2023-03-19T19:24:26.963Z,7.63
2023-03-19T19:26:56.772Z,8.02
2023-03-19T19:29:28.293Z,9.48
2023-03-19T19:31:57.043Z,9.77
2023-03-19T19:34:25.453Z,10.00
2023-03-19T19:36:57.475Z,11.15
2023-03-19T19:39:27.888Z,11.52
2023-03-19T19:41:56.913Z,11.43
2023-03-19T19:44:25.330Z,12.45
2023-03-19T19:46:54.516Z,13.48
2023-03-19T19:49:23.138Z,12.73
2023-03-19T19:51:51.739Z,13.15
2023-03-19T19:54:21.332Z,13.07
2023-03-19T19:56:52.125Z,13.52
2023-03-19T19:59:26.001Z,14.23
2023-03-19T20:01:54.645Z,13.55
2023-03-19T20:04:23.060Z,13.57
2023-03-19T20:06:52.068Z,15.00
2023-03-19T20:09:22.012Z,14.25
2023-03-19T20:11:51.971Z,15.48
2023-03-19T20:14:20.432Z,14.40
2023-03-19T20:16:49.025Z,15.40
2023-03-19T20:19:20.164Z,14.50
2023-03-19T20:21:48.732Z,14.50
2023-03-19T20:24:17.098Z,13.95
2023-03-19T20:26:45.862Z,14.95
2023-03-19T20:29:17.195Z,15.48
2023-03-19T20:31:47.588Z,13.93
2023-03-19T20:34:28.709Z,15.95
2023-03-19T20:37:05.252Z,16.88
2023-03-19T20:39:33.671Z,19.88
2023-03-19T20:42:02.148Z,15.77
2023-03-19T20:44:32.273Z,16.15
2023-03-19T20:47:00.739Z,14.75
2023-03-19T20:49:30.875Z,13.60
2023-03-19T20:51:59.454Z,13.82
2023-03-19T20:54:27.882Z,14.82
2023-03-19T20:56:56.505Z,14.70
2023-03-19T20:59:26.318Z,14.52
2023-03-19T21:01:56.592Z,15.50
2023-03-19T21:04:25.409Z,15.35
2023-03-19T21:06:54.491Z,15.75
2023-03-19T21:09:25.906Z,15.18
2023-03-19T21:11:54.426Z,13.48
2023-03-19T21:14:26.638Z,16.65
2023-03-19T21:16:56.607Z,16.67
2023-03-19T21:19:25.748Z,15.30
2023-03-19T21:21:54.733Z,16.05
2023-03-19T21:24:24.626Z,17.20
2023-03-19T21:26:56.175Z,18.23
2023-03-19T21:29:30.987Z,17.45
2023-03-19T21:32:00.860Z,18.50
2023-03-19T21:34:29.357Z,18.25
2023-03-19T21:36:57.971Z,19.05
2023-03-19T21:39:26.442Z,17.55
2023-03-19T21:41:57.231Z,18.35
2023-03-19T21:44:29.607Z,18.08
2023-03-19T21:46:58.499Z,18.67
2023-03-19T21:49:30.004Z,18.52
2023-03-19T21:51:58.683Z,19.90
2023-03-19T21:54:27.347Z,19.65
2023-03-19T21:56:55.820Z,21.13
2023-03-19T21:59:28.218Z,20.65
2023-03-19T22:01:57.756Z,21.25
2023-03-19T22:04:26.375Z,20.95
2023-03-19T22:06:56.480Z,21.75
2023-03-19T22:09:24.901Z,20.77
2023-03-19T22:11:53.661Z,22.23
2023-03-19T22:14:27.136Z,24.65
2023-03-19T22:16:57.167Z,24.33
2023-03-19T22:19:27.498Z,24.25
2023-03-19T22:21:57.349Z,26.73
2023-03-19T22:24:25.871Z,26.13
2023-03-19T22:26:57.647Z,24.95
2023-03-19T22:29:26.566Z,25.40
2023-03-19T22:31:58.463Z,26.08
2023-03-19T22:34:28.597Z,26.77
2023-03-19T22:36:58.388Z,25.45
2023-03-19T22:39:26.816Z,26.42
2023-03-19T22:41:55.513Z,27.00
2023-03-19T22:44:27.523Z,25.98
2023-03-19T22:46:57.429Z,27.17
2023-03-19T22:49:26.335Z,24.95
2023-03-19T22:51:55.621Z,24.17
2023-03-19T22:54:25.594Z,24.50
2023-03-19T22:56:53.979Z,27.48
2023-03-19T22:59:23.046Z,24.17
2023-03-19T23:01:51.611Z,26.10
2023-03-19T23:04:22.557Z,24.83
2023-03-19T23:06:52.237Z,23.48
2023-03-19T23:09:22.960Z,26.52
2023-03-19T23:11:53.576Z,24.02
2023-03-19T23:14:29.525Z,24.90
2023-03-19T23:17:00.739Z,25.52
2023-03-19T23:19:31.497Z,23.90
2023-03-19T23:22:02.378Z,23.52
2023-03-19T23:24:31.323Z,22.73
2023-03-19T23:27:02.250Z,23.50
2023-03-19T23:29:32.996Z,22.85
2023-03-19T23:32:01.649Z,21.92
2023-03-19T23:34:30.447Z,21.92
2023-03-19T23:36:59.823Z,21.02
2023-03-19T23:39:28.799Z,19.20
2023-03-19T23:41:59.266Z,18.40
2023-03-19T23:44:29.496Z,17.58
2023-03-19T23:47:02.866Z,20.88
2023-03-19T23:49:33.504Z,18.48
2023-03-19T23:52:04.383Z,19.70
2023-03-19T23:54:34.473Z,19.98
2023-03-19T23:57:06.689Z,19.98
2023-03-19T23:59:39.447Z,18.52
